createdAt,value
2019-01-21T20:34:07.689Z,20.70
2019-01-21T20:36:41.326Z,20.70
2019-01-21T20:39:12.489Z,20.70
2019-01-21T20:41:43.411Z,20.70
2019-01-21T20:44:13.839Z,20.70
2019-01-21T20:52:59.562Z,13.10
2019-01-21T20:55:30.244Z,4.50
2019-01-21T20:58:00.927Z,0.70
2019-01-21T21:00:32.988Z,-0.70
2019-01-21T21:03:06.641Z,-1.30
2019-01-21T21:05:38.882Z,-1.70
2019-01-21T21:08:09.897Z,-1.90
2019-01-21T21:10:42.797Z,-2.10
2019-01-21T21:13:14.574Z,-2.10
2019-01-21T21:15:45.277Z,-2.20
2019-01-21T21:18:16.646Z,-2.20
2019-01-21T21:20:47.863Z,-2.20
2019-01-21T21:23:18.516Z,-2.20
2019-01-21T21:25:49.122Z,-2.10
2019-01-21T21:28:19.737Z,-2.10
2019-01-21T21:30:50.849Z,-2.00
2019-01-21T21:33:22.729Z,-2.00
2019-01-21T21:35:53.489Z,-2.00
2019-01-21T21:38:24.322Z,-2.00
2019-01-21T21:40:55.031Z,-2.00
2019-01-21T21:43:27.007Z,-2.00
2019-01-21T21:45:57.545Z,-2.10
2019-01-21T21:48:31.840Z,-2.20
2019-01-21T21:50:59.988Z,-2.20
2019-01-21T21:53:30.225Z,-2.20
2019-01-21T21:56:00.824Z,-2.20
2019-01-21T21:58:31.823Z,-2.20
2019-01-21T22:01:01.989Z,-2.20
2019-01-21T22:03:32.103Z,-2.30
2019-01-21T22:06:02.524Z,-2.30
2019-01-21T22:08:32.915Z,-2.30
2019-01-21T22:11:03.256Z,-2.40
2019-01-21T22:13:33.529Z,-2.40
2019-01-21T22:16:03.984Z,-2.50
2019-01-21T22:18:34.717Z,-2.60
2019-01-21T22:21:05.245Z,-2.60
2019-01-21T22:23:35.706Z,-2.70
2019-01-21T22:26:06.181Z,-2.70
2019-01-21T22:28:36.419Z,-2.70
2019-01-21T22:31:06.509Z,-2.70
2019-01-21T22:33:36.643Z,-2.60
2019-01-21T22:36:06.714Z,-2.60
2019-01-21T22:38:36.853Z,-2.60
2019-01-21T22:41:07.310Z,-2.70
2019-01-21T22:43:37.539Z,-2.70
2019-01-21T22:46:07.939Z,-2.60
2019-01-21T22:48:38.390Z,-2.60
2019-01-21T22:51:08.560Z,-2.60
2019-01-21T22:53:39.053Z,-2.70
2019-01-21T22:56:09.159Z,-2.70
2019-01-21T22:58:39.247Z,-2.70
2019-01-21T23:01:12.469Z,-2.70
2019-01-21T23:03:42.595Z,-2.80
2019-01-21T23:06:12.675Z,-2.80
2019-01-21T23:08:42.849Z,-2.80
2019-01-21T23:11:13.344Z,-2.80
2019-01-21T23:13:43.568Z,-2.90
2019-01-21T23:16:13.666Z,-2.80
